sensor_id;sensor_type;location;lat;lon;timestamp;temperature;humidity
19138;DHT22;68178;52.188;5.598;2023-07-13T00:02:21;18.50;99.90
19138;DHT22;68178;52.188;5.598;2023-07-13T00:04:47;18.40;99.90
19138;DHT22;68178;52.188;5.598;2023-07-13T00:07:14;18.40;99.90
19138;DHT22;68178;52.188;5.598;2023-07-13T00:09:40;18.40;99.90
19138;DHT22;68178;52.188;5.598;2023-07-13T00:14:53;18.40;99.90
19138;DHT22;68178;52.188;5.598;2023-07-13T00:17:18;18.30;99.90
19138;DHT22;68178;52.188;5.598;2023-07-13T00:19:44;18.30;99.90
19138;DHT22;68178;52.188;5.598;2023-07-13T00:22:11;18.20;99.90
19138;DHT22;68178;52.188;5.598;2023-07-13T00:24:36;18.20;99.90
19138;DHT22;68178;52.188;5.598;2023-07-13T00:27:08;18.20;99.90
19138;DHT22;68178;52.188;5.598;2023-07-13T00:29:35;18.30;99.90
19138;DHT22;68178;52.188;5.598;2023-07-13T00:32:02;18.30;99.90
19138;DHT22;68178;52.188;5.598;2023-07-13T00:34:28;18.40;99.90
19138;DHT22;68178;52.188;5.598;2023-07-13T00:36:54;18.40;99.90
19138;DHT22;68178;52.188;5.598;2023-07-13T00:39:20;18.40;99.90
19138;DHT22;68178;52.188;5.598;2023-07-13T00:41:46;18.30;99.90
19138;DHT22;68178;52.188;5.598;2023-07-13T00:44:16;18.30;99.90
19138;DHT22;68178;52.188;5.598;2023-07-13T00:46:41;18.30;99.90
19138;DHT22;68178;52.188;5.598;2023-07-13T00:49:12;18.20;99.90
19138;DHT22;68178;52.188;5.598;2023-07-13T00:51:55;18.20;99.90
19138;DHT22;68178;52.188;5.598;2023-07-13T00:54:30;18.20;99.90
19138;DHT22;68178;52.188;5.598;2023-07-13T00:57:01;18.10;99.90
19138;DHT22;68178;52.188;5.598;2023-07-13T00:59:27;18.10;99.90
19138;DHT22;68178;52.188;5.598;2023-07-13T01:01:53;18.10;99.90
19138;DHT22;68178;52.188;5.598;2023-07-13T01:04:19;18.00;99.90
19138;DHT22;68178;52.188;5.598;2023-07-13T01:06:46;18.10;99.90
19138;DHT22;68178;52.188;5.598;2023-07-13T01:09:13;18.10;99.90
19138;DHT22;68178;52.188;5.598;2023-07-13T01:11:40;18.10;99.90
19138;DHT22;68178;52.188;5.598;2023-07-13T01:14:06;18.10;99.90
19138;DHT22;68178;52.188;5.598;2023-07-13T01:16:34;18.20;99.90
19138;DHT22;68178;52.188;5.598;2023-07-13T01:19:01;18.10;99.90
19138;DHT22;68178;52.188;5.598;2023-07-13T01:21:31;18.10;99.90
19138;DHT22;68178;52.188;5.598;2023-07-13T01:23:57;18.00;99.90
19138;DHT22;68178;52.188;5.598;2023-07-13T01:26:23;18.00;99.90
19138;DHT22;68178;52.188;5.598;2023-07-13T01:28:49;17.90;99.90
19138;DHT22;68178;52.188;5.598;2023-07-13T01:31:15;17.90;99.90
19138;DHT22;68178;52.188;5.598;2023-07-13T01:33:40;18.00;99.90
19138;DHT22;68178;52.188;5.598;2023-07-13T01:36:07;17.90;99.90
19138;DHT22;68178;52.188;5.598;2023-07-13T01:38:34;17.90;99.90
19138;DHT22;68178;52.188;5.598;2023-07-13T01:41:00;17.90;99.90
19138;DHT22;68178;52.188;5.598;2023-07-13T01:43:26;17.70;99.90
19138;DHT22;68178;52.188;5.598;2023-07-13T01:45:52;17.80;99.90
19138;DHT22;68178;52.188;5.598;2023-07-13T01:48:17;17.70;99.90
19138;DHT22;68178;52.188;5.598;2023-07-13T01:50:43;17.70;99.90
19138;DHT22;68178;52.188;5.598;2023-07-13T01:53:09;17.70;99.90
19138;DHT22;68178;52.188;5.598;2023-07-13T01:55:35;17.60;99.90
19138;DHT22;68178;52.188;5.598;2023-07-13T01:58:02;17.60;99.90
19138;DHT22;68178;52.188;5.598;2023-07-13T02:00:28;17.60;99.90
19138;DHT22;68178;52.188;5.598;2023-07-13T02:02:53;17.50;99.90
19138;DHT22;68178;52.188;5.598;2023-07-13T02:05:19;17.50;99.90
19138;DHT22;68178;52.188;5.598;2023-07-13T02:07:45;17.50;99.90
19138;DHT22;68178;52.188;5.598;2023-07-13T02:10:11;17.50;99.90
19138;DHT22;68178;52.188;5.598;2023-07-13T02:12:38;17.50;99.90
19138;DHT22;68178;52.188;5.598;2023-07-13T02:15:04;17.50;99.90
19138;DHT22;68178;52.188;5.598;2023-07-13T02:17:31;17.40;99.90
19138;DHT22;68178;52.188;5.598;2023-07-13T02:19:57;17.40;99.90
19138;DHT22;68178;52.188;5.598;2023-07-13T02:22:23;17.40;99.90
19138;DHT22;68178;52.188;5.598;2023-07-13T02:24:49;17.40;99.90
19138;DHT22;68178;52.188;5.598;2023-07-13T02:27:15;17.30;99.90
19138;DHT22;68178;52.188;5.598;2023-07-13T02:29:41;17.30;99.90
19138;DHT22;68178;52.188;5.598;2023-07-13T02:32:07;17.30;99.90
19138;DHT22;68178;52.188;5.598;2023-07-13T02:34:33;17.20;99.90
19138;DHT22;68178;52.188;5.598;2023-07-13T02:36:59;17.20;99.90
19138;DHT22;68178;52.188;5.598;2023-07-13T02:39:25;17.20;99.90
19138;DHT22;68178;52.188;5.598;2023-07-13T02:41:50;17.20;99.90
19138;DHT22;68178;52.188;5.598;2023-07-13T02:44:16;17.20;99.90
19138;DHT22;68178;52.188;5.598;2023-07-13T02:46:42;17.20;99.90
19138;DHT22;68178;52.188;5.598;2023-07-13T02:49:08;17.20;99.90
19138;DHT22;68178;52.188;5.598;2023-07-13T02:51:34;17.10;99.90
19138;DHT22;68178;52.188;5.598;2023-07-13T02:54:03;17.10;99.90
19138;DHT22;68178;52.188;5.598;2023-07-13T02:56:30;17.00;99.90
19138;DHT22;68178;52.188;5.598;2023-07-13T02:58:57;17.00;99.90
19138;DHT22;68178;52.188;5.598;2023-07-13T03:01:23;17.00;99.90
19138;DHT22;68178;52.188;5.598;2023-07-13T03:03:50;17.10;99.90
19138;DHT22;68178;52.188;5.598;2023-07-13T03:06:16;17.00;99.90
19138;DHT22;68178;52.188;5.598;2023-07-13T03:08:43;17.10;99.90
19138;DHT22;68178;52.188;5.598;2023-07-13T03:11:15;17.00;99.90
19138;DHT22;68178;52.188;5.598;2023-07-13T03:13:42;17.00;99.90
19138;DHT22;68178;52.188;5.598;2023-07-13T03:16:08;17.10;99.90
19138;DHT22;68178;52.188;5.598;2023-07-13T03:18:35;17.00;99.90
19138;DHT22;68178;52.188;5.598;2023-07-13T03:21:01;17.00;99.90
19138;DHT22;68178;52.188;5.598;2023-07-13T03:23:26;17.00;99.90
19138;DHT22;68178;52.188;5.598;2023-07-13T03:26:12;17.00;99.90
19138;DHT22;68178;52.188;5.598;2023-07-13T03:28:38;17.00;99.90
19138;DHT22;68178;52.188;5.598;2023-07-13T03:31:08;17.00;99.90
19138;DHT22;68178;52.188;5.598;2023-07-13T03:33:34;17.00;99.90
19138;DHT22;68178;52.188;5.598;2023-07-13T03:36:00;17.00;99.90
19138;DHT22;68178;52.188;5.598;2023-07-13T03:38:25;16.80;99.90
19138;DHT22;68178;52.188;5.598;2023-07-13T03:40:52;16.90;99.90
19138;DHT22;68178;52.188;5.598;2023-07-13T03:43:18;16.80;99.90
19138;DHT22;68178;52.188;5.598;2023-07-13T03:45:43;16.90;99.90
19138;DHT22;68178;52.188;5.598;2023-07-13T03:48:09;16.90;99.90
19138;DHT22;68178;52.188;5.598;2023-07-13T03:50:35;16.90;99.90
19138;DHT22;68178;52.188;5.598;2023-07-13T03:53:01;16.80;99.90
19138;DHT22;68178;52.188;5.598;2023-07-13T03:55:26;16.80;99.90
19138;DHT22;68178;52.188;5.598;2023-07-13T03:58:01;16.80;99.90
19138;DHT22;68178;52.188;5.598;2023-07-13T04:00:26;16.80;99.90
19138;DHT22;68178;52.188;5.598;2023-07-13T04:02:52;16.70;99.90
19138;DHT22;68178;52.188;5.598;2023-07-13T04:05:18;16.90;99.90
19138;DHT22;68178;52.188;5.598;2023-07-13T04:07:44;16.90;99.90
19138;DHT22;68178;52.188;5.598;2023-07-13T04:10:09;16.80;99.90
19138;DHT22;68178;52.188;5.598;2023-07-13T04:12:35;16.90;99.90
19138;DHT22;68178;52.188;5.598;2023-07-13T04:15:01;16.90;99.90
19138;DHT22;68178;52.188;5.598;2023-07-13T04:17:27;17.00;99.90
19138;DHT22;68178;52.188;5.598;2023-07-13T04:19:52;17.00;99.90
19138;DHT22;68178;52.188;5.598;2023-07-13T04:22:18;17.00;99.90
19138;DHT22;68178;52.188;5.598;2023-07-13T04:24:43;17.00;99.90
19138;DHT22;68178;52.188;5.598;2023-07-13T04:27:09;17.00;99.90
19138;DHT22;68178;52.188;5.598;2023-07-13T04:29:35;17.00;99.90
19138;DHT22;68178;52.188;5.598;2023-07-13T04:32:01;17.00;99.90
19138;DHT22;68178;52.188;5.598;2023-07-13T04:34:26;17.00;99.90
19138;DHT22;68178;52.188;5.598;2023-07-13T04:36:52;17.10;99.90
19138;DHT22;68178;52.188;5.598;2023-07-13T04:39:18;17.00;99.90
19138;DHT22;68178;52.188;5.598;2023-07-13T04:41:43;17.10;99.90
19138;DHT22;68178;52.188;5.598;2023-07-13T04:44:09;17.10;99.90
19138;DHT22;68178;52.188;5.598;2023-07-13T04:46:35;17.20;99.90
19138;DHT22;68178;52.188;5.598;2023-07-13T04:49:00;17.20;99.90
19138;DHT22;68178;52.188;5.598;2023-07-13T04:51:28;17.10;99.90
19138;DHT22;68178;52.188;5.598;2023-07-13T04:53:54;17.00;99.90
19138;DHT22;68178;52.188;5.598;2023-07-13T04:56:20;17.10;99.90
19138;DHT22;68178;52.188;5.598;2023-07-13T04:58:46;17.10;99.90
19138;DHT22;68178;52.188;5.598;2023-07-13T05:01:11;17.10;99.90
19138;DHT22;68178;52.188;5.598;2023-07-13T05:03:39;17.20;99.90
19138;DHT22;68178;52.188;5.598;2023-07-13T05:06:07;17.30;99.90
19138;DHT22;68178;52.188;5.598;2023-07-13T05:08:35;17.20;99.90
19138;DHT22;68178;52.188;5.598;2023-07-13T05:11:03;17.20;99.90
19138;DHT22;68178;52.188;5.598;2023-07-13T05:13:29;17.30;99.90
19138;DHT22;68178;52.188;5.598;2023-07-13T05:16:13;17.30;99.90
19138;DHT22;68178;52.188;5.598;2023-07-13T05:18:38;17.40;99.90
19138;DHT22;68178;52.188;5.598;2023-07-13T05:21:07;17.40;99.90
19138;DHT22;68178;52.188;5.598;2023-07-13T05:23:34;17.40;99.90
19138;DHT22;68178;52.188;5.598;2023-07-13T05:26:00;17.40;99.90
19138;DHT22;68178;52.188;5.598;2023-07-13T05:28:27;17.40;99.90
19138;DHT22;68178;52.188;5.598;2023-07-13T05:30:53;17.50;99.90
19138;DHT22;68178;52.188;5.598;2023-07-13T05:33:19;17.50;99.90
19138;DHT22;68178;52.188;5.598;2023-07-13T05:35:45;17.60;99.90
19138;DHT22;68178;52.188;5.598;2023-07-13T05:38:11;17.70;99.90
19138;DHT22;68178;52.188;5.598;2023-07-13T05:40:37;17.70;99.90
19138;DHT22;68178;52.188;5.598;2023-07-13T05:43:03;17.70;99.90
19138;DHT22;68178;52.188;5.598;2023-07-13T05:45:30;17.80;99.90
19138;DHT22;68178;52.188;5.598;2023-07-13T05:47:56;17.90;99.90
19138;DHT22;68178;52.188;5.598;2023-07-13T05:50:21;17.80;99.90
19138;DHT22;68178;52.188;5.598;2023-07-13T05:52:47;17.90;99.90
19138;DHT22;68178;52.188;5.598;2023-07-13T05:55:14;18.00;99.90
19138;DHT22;68178;52.188;5.598;2023-07-13T05:57:40;17.90;99.90
19138;DHT22;68178;52.188;5.598;2023-07-13T06:00:07;17.90;99.90
19138;DHT22;68178;52.188;5.598;2023-07-13T06:02:33;18.00;99.90
19138;DHT22;68178;52.188;5.598;2023-07-13T06:04:59;18.00;99.90
19138;DHT22;68178;52.188;5.598;2023-07-13T06:07:24;18.10;99.90
19138;DHT22;68178;52.188;5.598;2023-07-13T06:09:50;18.10;99.90
19138;DHT22;68178;52.188;5.598;2023-07-13T06:12:16;18.10;99.90
19138;DHT22;68178;52.188;5.598;2023-07-13T06:14:42;18.20;99.90
19138;DHT22;68178;52.188;5.598;2023-07-13T06:17:08;18.30;99.90
19138;DHT22;68178;52.188;5.598;2023-07-13T06:19:34;18.40;99.90
19138;DHT22;68178;52.188;5.598;2023-07-13T06:21:59;18.40;99.90
19138;DHT22;68178;52.188;5.598;2023-07-13T06:24:25;18.60;99.90
19138;DHT22;68178;52.188;5.598;2023-07-13T06:26:51;18.60;99.90
19138;DHT22;68178;52.188;5.598;2023-07-13T06:29:16;18.60;99.90
19138;DHT22;68178;52.188;5.598;2023-07-13T06:31:42;18.70;99.90
19138;DHT22;68178;52.188;5.598;2023-07-13T06:34:08;18.70;99.90
19138;DHT22;68178;52.188;5.598;2023-07-13T06:36:34;18.70;99.90
19138;DHT22;68178;52.188;5.598;2023-07-13T06:39:02;18.80;99.90
19138;DHT22;68178;52.188;5.598;2023-07-13T06:41:30;18.90;99.90
19138;DHT22;68178;52.188;5.598;2023-07-13T06:43:56;18.90;99.90
19138;DHT22;68178;52.188;5.598;2023-07-13T06:46:22;18.80;99.90
19138;DHT22;68178;52.188;5.598;2023-07-13T06:48:48;18.80;99.90
19138;DHT22;68178;52.188;5.598;2023-07-13T06:51:13;18.80;99.90
19138;DHT22;68178;52.188;5.598;2023-07-13T06:53:39;18.70;99.90
19138;DHT22;68178;52.188;5.598;2023-07-13T06:56:05;18.80;99.90
19138;DHT22;68178;52.188;5.598;2023-07-13T06:58:31;18.80;99.90
19138;DHT22;68178;52.188;5.598;2023-07-13T07:00:56;18.80;99.90
19138;DHT22;68178;52.188;5.598;2023-07-13T07:03:22;18.90;99.90
19138;DHT22;68178;52.188;5.598;2023-07-13T07:05:48;19.20;99.90
19138;DHT22;68178;52.188;5.598;2023-07-13T07:08:13;19.40;99.90
19138;DHT22;68178;52.188;5.598;2023-07-13T07:10:40;19.50;99.90
19138;DHT22;68178;52.188;5.598;2023-07-13T07:13:06;19.40;99.90
19138;DHT22;68178;52.188;5.598;2023-07-13T07:15:31;19.40;99.90
19138;DHT22;68178;52.188;5.598;2023-07-13T07:17:57;19.50;99.90
19138;DHT22;68178;52.188;5.598;2023-07-13T07:20:23;19.60;99.90
19138;DHT22;68178;52.188;5.598;2023-07-13T07:22:49;19.70;99.90
19138;DHT22;68178;52.188;5.598;2023-07-13T07:25:14;19.80;99.90
19138;DHT22;68178;52.188;5.598;2023-07-13T07:27:40;19.80;99.90
19138;DHT22;68178;52.188;5.598;2023-07-13T07:30:06;19.70;99.90
19138;DHT22;68178;52.188;5.598;2023-07-13T07:32:32;19.70;99.90
19138;DHT22;68178;52.188;5.598;2023-07-13T07:34:58;19.50;99.90
19138;DHT22;68178;52.188;5.598;2023-07-13T07:37:24;19.70;99.90
19138;DHT22;68178;52.188;5.598;2023-07-13T07:39:49;19.80;99.90
19138;DHT22;68178;52.188;5.598;2023-07-13T07:42:16;19.90;99.90
19138;DHT22;68178;52.188;5.598;2023-07-13T07:44:42;19.90;99.90
19138;DHT22;68178;52.188;5.598;2023-07-13T07:47:08;19.90;99.90
19138;DHT22;68178;52.188;5.598;2023-07-13T07:49:34;19.80;99.90
19138;DHT22;68178;52.188;5.598;2023-07-13T07:52:00;19.70;99.90
19138;DHT22;68178;52.188;5.598;2023-07-13T07:54:26;19.60;99.90
19138;DHT22;68178;52.188;5.598;2023-07-13T07:56:51;19.50;99.90
19138;DHT22;68178;52.188;5.598;2023-07-13T07:59:17;19.50;99.90
19138;DHT22;68178;52.188;5.598;2023-07-13T08:01:43;19.60;99.90
19138;DHT22;68178;52.188;5.598;2023-07-13T08:04:08;19.50;99.90
19138;DHT22;68178;52.188;5.598;2023-07-13T08:06:34;19.60;99.90
19138;DHT22;68178;52.188;5.598;2023-07-13T08:09:00;19.70;99.90
19138;DHT22;68178;52.188;5.598;2023-07-13T08:11:26;19.60;99.90
19138;DHT22;68178;52.188;5.598;2023-07-13T08:13:52;19.60;99.90
19138;DHT22;68178;52.188;5.598;2023-07-13T08:16:18;19.70;99.90
19138;DHT22;68178;52.188;5.598;2023-07-13T08:18:43;19.80;99.90
19138;DHT22;68178;52.188;5.598;2023-07-13T08:21:09;19.70;99.90
19138;DHT22;68178;52.188;5.598;2023-07-13T08:23:35;19.80;99.90
19138;DHT22;68178;52.188;5.598;2023-07-13T08:26:02;19.90;99.90
19138;DHT22;68178;52.188;5.598;2023-07-13T08:28:28;20.00;99.90
19138;DHT22;68178;52.188;5.598;2023-07-13T08:30:54;20.30;99.90
19138;DHT22;68178;52.188;5.598;2023-07-13T08:33:21;20.60;99.90
19138;DHT22;68178;52.188;5.598;2023-07-13T08:35:49;20.70;99.90
19138;DHT22;68178;52.188;5.598;2023-07-13T08:38:16;20.90;99.90
19138;DHT22;68178;52.188;5.598;2023-07-13T08:40:43;21.00;99.90
19138;DHT22;68178;52.188;5.598;2023-07-13T08:43:16;20.70;99.90
19138;DHT22;68178;52.188;5.598;2023-07-13T08:48:43;20.60;99.90
19138;DHT22;68178;52.188;5.598;2023-07-13T08:51:41;20.60;99.90
19138;DHT22;68178;52.188;5.598;2023-07-13T08:54:32;20.50;99.90
19138;DHT22;68178;52.188;5.598;2023-07-13T08:57:08;20.60;99.90
19138;DHT22;68178;52.188;5.598;2023-07-13T08:59:35;20.60;99.90
19138;DHT22;68178;52.188;5.598;2023-07-13T09:07:44;21.00;99.90
19138;DHT22;68178;52.188;5.598;2023-07-13T09:10:19;20.90;99.90
19138;DHT22;68178;52.188;5.598;2023-07-13T09:15:31;20.70;99.90
19138;DHT22;68178;52.188;5.598;2023-07-13T09:18:18;20.30;99.90
19138;DHT22;68178;52.188;5.598;2023-07-13T09:20:56;20.10;99.90
19138;DHT22;68178;52.188;5.598;2023-07-13T09:23:24;19.90;99.90
19138;DHT22;68178;52.188;5.598;2023-07-13T09:26:03;19.70;99.90
19138;DHT22;68178;52.188;5.598;2023-07-13T09:28:35;19.70;99.90
19138;DHT22;68178;52.188;5.598;2023-07-13T09:31:10;19.60;99.90
19138;DHT22;68178;52.188;5.598;2023-07-13T09:33:39;19.60;99.90
19138;DHT22;68178;52.188;5.598;2023-07-13T09:36:23;19.90;99.90
19138;DHT22;68178;52.188;5.598;2023-07-13T09:41:49;20.50;99.90
19138;DHT22;68178;52.188;5.598;2023-07-13T09:44:15;20.60;99.90
19138;DHT22;68178;52.188;5.598;2023-07-13T09:46:55;21.10;99.90
19138;DHT22;68178;52.188;5.598;2023-07-13T09:49:29;21.40;99.90
19138;DHT22;68178;52.188;5.598;2023-07-13T09:52:11;21.50;99.90
19138;DHT22;68178;52.188;5.598;2023-07-13T09:54:38;21.40;99.90
19138;DHT22;68178;52.188;5.598;2023-07-13T09:57:13;21.20;99.90
19138;DHT22;68178;52.188;5.598;2023-07-13T09:59:47;21.40;99.90
19138;DHT22;68178;52.188;5.598;2023-07-13T10:02:34;21.40;99.90
19138;DHT22;68178;52.188;5.598;2023-07-13T10:05:03;21.30;99.90
19138;DHT22;68178;52.188;5.598;2023-07-13T10:07:30;21.20;99.90
19138;DHT22;68178;52.188;5.598;2023-07-13T10:09:58;20.90;99.90
19138;DHT22;68178;52.188;5.598;2023-07-13T10:12:26;20.30;99.90
19138;DHT22;68178;52.188;5.598;2023-07-13T10:14:55;19.80;99.90
19138;DHT22;68178;52.188;5.598;2023-07-13T10:17:29;19.60;99.90
19138;DHT22;68178;52.188;5.598;2023-07-13T10:20:01;19.40;99.90
19138;DHT22;68178;52.188;5.598;2023-07-13T10:22:38;19.10;99.90
19138;DHT22;68178;52.188;5.598;2023-07-13T10:25:18;19.20;99.90
19138;DHT22;68178;52.188;5.598;2023-07-13T10:27:45;19.70;99.90
19138;DHT22;68178;52.188;5.598;2023-07-13T10:32:49;20.60;99.90
19138;DHT22;68178;52.188;5.598;2023-07-13T10:35:17;21.10;99.90
19138;DHT22;68178;52.188;5.598;2023-07-13T10:40:19;21.60;99.90
19138;DHT22;68178;52.188;5.598;2023-07-13T10:42:48;21.80;99.90
19138;DHT22;68178;52.188;5.598;2023-07-13T10:45:20;21.90;99.90
19138;DHT22;68178;52.188;5.598;2023-07-13T10:47:47;21.80;99.90
19138;DHT22;68178;52.188;5.598;2023-07-13T10:50:19;21.70;99.90
19138;DHT22;68178;52.188;5.598;2023-07-13T10:52:48;21.70;99.90
19138;DHT22;68178;52.188;5.598;2023-07-13T10:58:03;22.20;99.90
19138;DHT22;68178;52.188;5.598;2023-07-13T11:00:44;22.30;99.90
19138;DHT22;68178;52.188;5.598;2023-07-13T11:03:14;22.00;99.90
19138;DHT22;68178;52.188;5.598;2023-07-13T11:05:41;22.00;99.90
19138;DHT22;68178;52.188;5.598;2023-07-13T11:08:20;21.80;99.90
19138;DHT22;68178;52.188;5.598;2023-07-13T11:10:56;21.50;99.90
19138;DHT22;68178;52.188;5.598;2023-07-13T11:16:37;22.10;99.90
19138;DHT22;68178;52.188;5.598;2023-07-13T11:21:29;22.80;99.90
19138;DHT22;68178;52.188;5.598;2023-07-13T11:26:51;22.90;99.90
19138;DHT22;68178;52.188;5.598;2023-07-13T11:31:51;21.80;99.90
19138;DHT22;68178;52.188;5.598;2023-07-13T11:34:21;21.40;99.90
19138;DHT22;68178;52.188;5.598;2023-07-13T11:36:50;21.60;99.90
19138;DHT22;68178;52.188;5.598;2023-07-13T11:41:58;22.30;99.90
19138;DHT22;68178;52.188;5.598;2023-07-13T11:44:26;22.10;99.90
19138;DHT22;68178;52.188;5.598;2023-07-13T11:46:53;22.00;99.90
19138;DHT22;68178;52.188;5.598;2023-07-13T11:49:21;22.40;99.90
19138;DHT22;68178;52.188;5.598;2023-07-13T11:51:47;22.40;99.90
19138;DHT22;68178;52.188;5.598;2023-07-13T11:54:28;22.50;99.90
19138;DHT22;68178;52.188;5.598;2023-07-13T11:59:50;21.70;99.90
19138;DHT22;68178;52.188;5.598;2023-07-13T12:02:22;21.10;99.90
19138;DHT22;68178;52.188;5.598;2023-07-13T12:04:51;20.70;99.90
19138;DHT22;68178;52.188;5.598;2023-07-13T12:07:19;20.90;99.90
19138;DHT22;68178;52.188;5.598;2023-07-13T12:09:45;21.20;99.90
19138;DHT22;68178;52.188;5.598;2023-07-13T12:12:12;21.50;99.90
19138;DHT22;68178;52.188;5.598;2023-07-13T12:14:38;21.40;99.90
19138;DHT22;68178;52.188;5.598;2023-07-13T12:17:27;21.30;99.90
19138;DHT22;68178;52.188;5.598;2023-07-13T12:19:53;21.20;99.90
19138;DHT22;68178;52.188;5.598;2023-07-13T12:22:20;21.30;99.90
19138;DHT22;68178;52.188;5.598;2023-07-13T12:24:46;21.20;99.90
19138;DHT22;68178;52.188;5.598;2023-07-13T12:27:27;21.10;99.90
19138;DHT22;68178;52.188;5.598;2023-07-13T12:30:03;21.10;99.90
19138;DHT22;68178;52.188;5.598;2023-07-13T12:32:31;21.10;99.90
19138;DHT22;68178;52.188;5.598;2023-07-13T12:35:13;21.10;99.90
19138;DHT22;68178;52.188;5.598;2023-07-13T12:37:45;21.20;99.90
19138;DHT22;68178;52.188;5.598;2023-07-13T12:40:19;21.50;99.90
19138;DHT22;68178;52.188;5.598;2023-07-13T12:42:47;21.50;99.90
19138;DHT22;68178;52.188;5.598;2023-07-13T12:45:24;21.50;99.90
19138;DHT22;68178;52.188;5.598;2023-07-13T12:48:14;21.50;99.90
19138;DHT22;68178;52.188;5.598;2023-07-13T12:50:46;21.60;99.90
19138;DHT22;68178;52.188;5.598;2023-07-13T12:53:20;21.50;99.90
19138;DHT22;68178;52.188;5.598;2023-07-13T12:55:49;21.70;99.90
19138;DHT22;68178;52.188;5.598;2023-07-13T12:58:30;22.30;99.90
19138;DHT22;68178;52.188;5.598;2023-07-13T13:00:58;23.00;99.90
19138;DHT22;68178;52.188;5.598;2023-07-13T13:03:36;23.80;99.90
19138;DHT22;68178;52.188;5.598;2023-07-13T13:06:18;24.30;99.90
19138;DHT22;68178;52.188;5.598;2023-07-13T13:08:50;24.70;99.90
19138;DHT22;68178;52.188;5.598;2023-07-13T13:11:20;24.50;99.90
19138;DHT22;68178;52.188;5.598;2023-07-13T13:13:46;24.00;99.90
19138;DHT22;68178;52.188;5.598;2023-07-13T13:18:50;24.10;99.90
19138;DHT22;68178;52.188;5.598;2023-07-13T13:21:17;24.30;99.90
19138;DHT22;68178;52.188;5.598;2023-07-13T13:23:44;24.50;99.90
19138;DHT22;68178;52.188;5.598;2023-07-13T13:26:15;24.60;99.90
19138;DHT22;68178;52.188;5.598;2023-07-13T13:28:44;24.30;99.90
19138;DHT22;68178;52.188;5.598;2023-07-13T13:31:11;23.80;99.90
19138;DHT22;68178;52.188;5.598;2023-07-13T13:33:39;23.20;99.90
19138;DHT22;68178;52.188;5.598;2023-07-13T13:36:20;23.30;99.90
19138;DHT22;68178;52.188;5.598;2023-07-13T13:38:47;23.70;99.90
19138;DHT22;68178;52.188;5.598;2023-07-13T13:41:14;24.00;99.90
19138;DHT22;68178;52.188;5.598;2023-07-13T13:43:41;23.60;99.90
19138;DHT22;68178;52.188;5.598;2023-07-13T13:46:28;23.10;99.90
19138;DHT22;68178;52.188;5.598;2023-07-13T13:48:55;22.80;99.90
19138;DHT22;68178;52.188;5.598;2023-07-13T13:51:23;22.80;99.90
19138;DHT22;68178;52.188;5.598;2023-07-13T13:53:49;23.20;99.90
19138;DHT22;68178;52.188;5.598;2023-07-13T13:56:17;23.60;99.90
19138;DHT22;68178;52.188;5.598;2023-07-13T13:58:43;23.60;99.90
19138;DHT22;68178;52.188;5.598;2023-07-13T14:01:14;23.20;99.90
19138;DHT22;68178;52.188;5.598;2023-07-13T14:03:42;23.10;99.90
19138;DHT22;68178;52.188;5.598;2023-07-13T14:06:12;23.40;99.90
19138;DHT22;68178;52.188;5.598;2023-07-13T14:08:38;23.70;99.90
19138;DHT22;68178;52.188;5.598;2023-07-13T14:11:04;23.80;99.90
19138;DHT22;68178;52.188;5.598;2023-07-13T14:13:37;23.50;99.90
19138;DHT22;68178;52.188;5.598;2023-07-13T14:16:15;23.30;99.90
19138;DHT22;68178;52.188;5.598;2023-07-13T14:18:43;23.30;99.90
19138;DHT22;68178;52.188;5.598;2023-07-13T14:21:20;23.60;99.90
19138;DHT22;68178;52.188;5.598;2023-07-13T14:23:47;23.80;99.90
19138;DHT22;68178;52.188;5.598;2023-07-13T14:26:22;23.70;99.90
19138;DHT22;68178;52.188;5.598;2023-07-13T14:28:51;23.30;99.90
19138;DHT22;68178;52.188;5.598;2023-07-13T14:31:17;23.20;99.90
19138;DHT22;68178;52.188;5.598;2023-07-13T14:33:46;23.20;99.90
19138;DHT22;68178;52.188;5.598;2023-07-13T14:36:27;23.20;99.90
19138;DHT22;68178;52.188;5.598;2023-07-13T14:38:53;23.20;99.90
19138;DHT22;68178;52.188;5.598;2023-07-13T14:41:19;23.00;99.90
19138;DHT22;68178;52.188;5.598;2023-07-13T14:43:46;23.00;99.90
19138;DHT22;68178;52.188;5.598;2023-07-13T14:46:40;23.20;99.90
19138;DHT22;68178;52.188;5.598;2023-07-13T14:51:48;23.60;99.90
19138;DHT22;68178;52.188;5.598;2023-07-13T14:54:13;23.70;99.90
19138;DHT22;68178;52.188;5.598;2023-07-13T14:56:40;23.40;99.90
19138;DHT22;68178;52.188;5.598;2023-07-13T14:59:05;23.40;99.90
19138;DHT22;68178;52.188;5.598;2023-07-13T15:01:34;23.60;99.90
19138;DHT22;68178;52.188;5.598;2023-07-13T15:04:00;23.40;99.90
19138;DHT22;68178;52.188;5.598;2023-07-13T15:06:26;23.40;99.90
19138;DHT22;68178;52.188;5.598;2023-07-13T15:08:51;23.10;99.90
19138;DHT22;68178;52.188;5.598;2023-07-13T15:11:17;23.00;99.90
19138;DHT22;68178;52.188;5.598;2023-07-13T15:13:43;22.90;99.90
19138;DHT22;68178;52.188;5.598;2023-07-13T15:16:16;22.90;99.90
19138;DHT22;68178;52.188;5.598;2023-07-13T15:18:43;22.90;99.90
19138;DHT22;68178;52.188;5.598;2023-07-13T15:21:11;23.10;99.90
19138;DHT22;68178;52.188;5.598;2023-07-13T15:23:40;23.20;99.90
19138;DHT22;68178;52.188;5.598;2023-07-13T15:26:12;23.20;99.90
19138;DHT22;68178;52.188;5.598;2023-07-13T15:28:38;23.20;99.90
19138;DHT22;68178;52.188;5.598;2023-07-13T15:31:15;23.00;99.90
19138;DHT22;68178;52.188;5.598;2023-07-13T15:33:42;22.80;99.90
19138;DHT22;68178;52.188;5.598;2023-07-13T15:36:08;22.70;99.90
19138;DHT22;68178;52.188;5.598;2023-07-13T15:38:36;22.50;99.90
19138;DHT22;68178;52.188;5.598;2023-07-13T15:41:18;22.50;99.90
19138;DHT22;68178;52.188;5.598;2023-07-13T15:43:46;22.80;99.90
19138;DHT22;68178;52.188;5.598;2023-07-13T15:46:12;22.90;99.90
19138;DHT22;68178;52.188;5.598;2023-07-13T15:48:37;23.00;99.90
19138;DHT22;68178;52.188;5.598;2023-07-13T15:51:05;23.00;99.90
19138;DHT22;68178;52.188;5.598;2023-07-13T15:53:33;22.80;99.90
19138;DHT22;68178;52.188;5.598;2023-07-13T15:56:02;22.80;99.90
19138;DHT22;68178;52.188;5.598;2023-07-13T15:58:36;22.90;99.90
19138;DHT22;68178;52.188;5.598;2023-07-13T16:01:03;22.80;99.90
19138;DHT22;68178;52.188;5.598;2023-07-13T16:03:29;22.80;99.90
19138;DHT22;68178;52.188;5.598;2023-07-13T16:05:55;22.70;99.90
19138;DHT22;68178;52.188;5.598;2023-07-13T16:08:29;22.80;99.90
19138;DHT22;68178;52.188;5.598;2023-07-13T16:10:56;22.90;99.90
19138;DHT22;68178;52.188;5.598;2023-07-13T16:13:22;22.80;99.90
19138;DHT22;68178;52.188;5.598;2023-07-13T16:15:50;22.70;99.90
19138;DHT22;68178;52.188;5.598;2023-07-13T16:18:16;22.80;99.90
19138;DHT22;68178;52.188;5.598;2023-07-13T16:20:46;22.80;99.90
19138;DHT22;68178;52.188;5.598;2023-07-13T16:23:13;22.70;99.90
19138;DHT22;68178;52.188;5.598;2023-07-13T16:25:40;22.50;99.90